createdAt,value
2023-01-22T00:02:06.160Z,-0.90
2023-01-22T00:06:08.721Z,-0.90
2023-01-22T00:10:11.312Z,-0.90
2023-01-22T00:14:12.921Z,-0.80
2023-01-22T00:18:15.093Z,-0.80
2023-01-22T00:22:16.707Z,-0.80
2023-01-22T00:26:18.416Z,-0.80
2023-01-22T00:30:20.319Z,-0.80
2023-01-22T00:34:21.920Z,-0.80
2023-01-22T00:38:23.546Z,-0.80
2023-01-22T00:42:25.143Z,-0.70
2023-01-22T00:46:26.770Z,-0.80
2023-01-22T00:50:28.468Z,-0.80
2023-01-22T00:54:30.223Z,-0.70
2023-01-22T00:58:31.835Z,-0.70
2023-01-22T01:02:33.431Z,-0.80
2023-01-22T01:06:35.112Z,-0.70
2023-01-22T01:10:36.885Z,-0.70
2023-01-22T01:14:38.567Z,-0.80
2023-01-22T01:18:40.311Z,-0.80
2023-01-22T01:22:41.883Z,-0.70
2023-01-22T01:26:43.498Z,-0.80
2023-01-22T01:30:45.845Z,-0.70
2023-01-22T01:34:49.526Z,-0.80
2023-01-22T01:38:51.688Z,-0.80
2023-01-22T01:42:53.298Z,-0.80
2023-01-22T01:47:01.217Z,-0.80
2023-01-22T01:51:02.921Z,-0.80
2023-01-22T01:55:05.069Z,-0.80
2023-01-22T01:59:11.603Z,-0.80
2023-01-22T02:03:13.401Z,-0.80
2023-01-22T02:07:15.101Z,-0.90
2023-01-22T02:11:18.091Z,-0.90
2023-01-22T02:15:19.712Z,-0.90
2023-01-22T02:19:21.337Z,-0.90
2023-01-22T02:23:23.197Z,-0.80
2023-01-22T02:27:24.835Z,-0.90
2023-01-22T02:31:26.608Z,-0.90
2023-01-22T02:35:28.186Z,-0.90
2023-01-22T02:39:30.633Z,-0.90
2023-01-22T02:43:32.236Z,-0.90
2023-01-22T02:47:36.916Z,-0.90
2023-01-22T02:51:38.915Z,-0.90
2023-01-22T02:55:40.694Z,-0.90
2023-01-22T02:59:42.340Z,-0.90
2023-01-22T03:03:44.374Z,-0.90
2023-01-22T03:07:46.412Z,-0.90
2023-01-22T03:11:48.098Z,-0.90
2023-01-22T03:16:11.671Z,-1.00
2023-01-22T03:20:31.903Z,-1.00
2023-01-22T03:24:33.491Z,-1.00
2023-01-22T03:28:35.980Z,-1.00
2023-01-22T03:32:37.581Z,-1.00
2023-01-22T03:36:39.118Z,-1.00
2023-01-22T03:40:40.808Z,-1.00
2023-01-22T03:44:42.391Z,-1.00
2023-01-22T03:48:44.011Z,-1.00
2023-01-22T03:52:45.620Z,-1.00
2023-01-22T03:56:47.185Z,-1.00
2023-01-22T08:12:09.652Z,-0.90
2023-01-22T08:16:11.300Z,-0.90
2023-01-22T08:20:12.928Z,-0.90
2023-01-22T08:24:14.607Z,-0.90
2023-01-22T08:28:16.173Z,-0.90
2023-01-22T08:32:21.089Z,-0.90
2023-01-22T08:36:22.948Z,-0.80
2023-01-22T08:40:24.625Z,-0.90
2023-01-22T08:44:26.247Z,-0.90
2023-01-22T08:48:27.895Z,-0.90
2023-01-22T08:52:29.606Z,-0.80
2023-01-22T08:56:31.232Z,-0.80
2023-01-22T09:00:32.965Z,-0.80
2023-01-22T09:04:34.564Z,-0.80
2023-01-22T09:08:36.140Z,-0.80
2023-01-22T09:12:38.055Z,-0.70
2023-01-22T09:16:39.945Z,-0.70
2023-01-22T09:20:41.505Z,-0.80
2023-01-22T09:24:43.223Z,-0.70
2023-01-22T09:28:45.023Z,-0.70
2023-01-22T09:32:46.858Z,-0.70
2023-01-22T09:36:48.510Z,-0.70
2023-01-22T09:40:52.991Z,-0.70
2023-01-22T09:44:57.630Z,-0.60
2023-01-22T09:49:19.532Z,-0.60
2023-01-22T09:53:21.524Z,-0.60
2023-01-22T09:57:31.496Z,-0.60
2023-01-22T10:01:34.255Z,-0.50
2023-01-22T10:05:37.989Z,-0.60
2023-01-22T10:09:40.481Z,-0.50
2023-01-22T10:13:42.113Z,-0.50
2023-01-22T10:17:44.399Z,-0.60
2023-01-22T10:21:48.570Z,-0.60
2023-01-22T10:25:53.171Z,-0.50
2023-01-22T10:30:00.899Z,-0.50
2023-01-22T10:34:04.280Z,-0.60
2023-01-22T10:38:05.856Z,-0.40
2023-01-22T10:42:07.529Z,-0.50
2023-01-22T10:46:20.919Z,-0.40
2023-01-22T10:50:22.976Z,-0.40
2023-01-22T10:54:27.860Z,-0.40
2023-01-22T10:58:35.879Z,-0.50
2023-01-22T11:02:41.161Z,-0.50
2023-01-22T11:06:45.519Z,-0.50
2023-01-22T11:10:56.074Z,-0.40
2023-01-22T11:15:04.846Z,-0.40
2023-01-22T11:19:12.679Z,-0.40
2023-01-22T11:23:14.230Z,-0.40
2023-01-22T11:27:29.547Z,-0.40
2023-01-22T11:31:31.316Z,-0.40
2023-01-22T11:35:36.298Z,-0.40
2023-01-22T11:39:45.797Z,-0.30
2023-01-22T11:43:55.753Z,-0.40
2023-01-22T11:47:57.466Z,-0.30
2023-01-22T11:51:59.122Z,-0.30
2023-01-22T11:56:06.497Z,-0.30
2023-01-22T12:00:26.533Z,-0.30
2023-01-22T12:04:31.219Z,-0.30
2023-01-22T12:08:42.074Z,-0.30
2023-01-22T12:12:43.669Z,-0.30
2023-01-22T12:16:50.103Z,-0.30
2023-01-22T12:21:04.120Z,-0.30
2023-01-22T12:25:11.672Z,-0.30
2023-01-22T12:29:17.299Z,-0.40
2023-01-22T12:33:41.193Z,-0.40
2023-01-22T12:37:45.452Z,-0.30
2023-01-22T12:41:50.100Z,-0.20
2023-01-22T12:45:59.347Z,-0.30
2023-01-22T12:50:01.735Z,-0.20
2023-01-22T12:54:22.848Z,-0.20
2023-01-22T12:58:27.766Z,-0.20
2023-01-22T13:02:30.438Z,-0.20
2023-01-22T13:06:36.426Z,-0.20
2023-01-22T13:10:38.039Z,-0.30
2023-01-22T13:14:41.187Z,-0.30
2023-01-22T13:18:50.900Z,-0.30
2023-01-22T13:22:54.483Z,-0.20
2023-01-22T13:26:58.362Z,-0.30
2023-01-22T13:31:02.506Z,-0.30
2023-01-22T13:35:05.032Z,-0.20
2023-01-22T13:39:06.638Z,-0.20
2023-01-22T13:43:08.360Z,-0.20
2023-01-22T13:47:30.301Z,-0.30
2023-01-22T13:51:33.214Z,-0.20
2023-01-22T13:55:34.870Z,-0.30
2023-01-22T13:59:36.528Z,-0.30
2023-01-22T14:03:38.969Z,-0.20
2023-01-22T14:07:41.071Z,-0.20
2023-01-22T14:11:42.708Z,-0.30
2023-01-22T14:15:53.758Z,-0.30
2023-01-22T14:19:55.876Z,-0.20
2023-01-22T14:23:57.433Z,-0.30
2023-01-22T14:28:02.158Z,-0.20
2023-01-22T14:32:04.131Z,-0.20
2023-01-22T14:36:06.100Z,-0.20
2023-01-22T14:40:09.267Z,-0.20
2023-01-22T14:44:11.145Z,-0.20
2023-01-22T14:48:16.786Z,-0.20
2023-01-22T14:52:18.456Z,-0.10
2023-01-22T14:56:20.354Z,-0.10
2023-01-22T15:00:22.377Z,-0.10
2023-01-22T15:04:24.061Z,-0.20
2023-01-22T15:08:25.675Z,-0.10
2023-01-22T15:12:27.395Z,-0.10
2023-01-22T15:16:29.106Z,-0.10
2023-01-22T15:20:30.787Z,-0.10
2023-01-22T15:24:32.435Z,-0.10
2023-01-22T15:28:34.410Z,-0.10
2023-01-22T15:32:35.988Z,-0.10
2023-01-22T15:36:41.120Z,-0.10
2023-01-22T15:40:42.712Z,-0.10
2023-01-22T15:44:44.655Z,-0.10
2023-01-22T15:48:46.278Z,-0.10
2023-01-22T15:52:47.885Z,-0.10
2023-01-22T15:56:49.606Z,-0.10
2023-01-22T16:00:51.188Z,-0.10
2023-01-22T16:04:52.819Z,-0.10
2023-01-22T16:08:55.160Z,0.00
2023-01-22T16:12:56.806Z,-0.10
2023-01-22T16:16:58.440Z,-0.10
2023-01-22T16:21:04.485Z,-0.10
2023-01-22T16:25:08.454Z,-0.10
2023-01-22T16:29:10.173Z,-0.10
2023-01-22T16:33:27.223Z,-0.10
2023-01-22T16:37:28.824Z,-0.10
2023-01-22T16:41:31.420Z,-0.10
2023-01-22T16:45:36.072Z,-0.10
2023-01-22T16:49:37.659Z,-0.10
2023-01-22T16:53:39.293Z,-0.20
2023-01-22T16:57:40.901Z,-0.10
2023-01-22T17:06:49.882Z,-0.10
2023-01-22T17:10:51.565Z,-0.10
2023-01-22T17:14:53.159Z,-0.20
2023-01-22T17:18:55.173Z,-0.10
2023-01-22T17:22:57.999Z,-0.10
2023-01-22T17:27:02.285Z,-0.20
2023-01-22T17:31:08.515Z,-0.10
2023-01-22T17:35:10.385Z,-0.10
2023-01-22T17:39:13.762Z,-0.10
2023-01-22T17:43:15.377Z,-0.10
2023-01-22T17:47:16.972Z,-0.10
2023-01-22T17:51:19.840Z,-0.10
2023-01-22T17:55:21.792Z,0.00
2023-01-22T17:59:24.397Z,-0.10
2023-01-22T18:03:26.009Z,0.00
2023-01-22T18:07:27.581Z,-0.10
2023-01-22T18:11:29.889Z,-0.10
2023-01-22T18:15:31.565Z,0.00
2023-01-22T18:19:33.342Z,0.00
2023-01-22T18:23:35.262Z,0.00
2023-01-22T18:27:36.852Z,0.00
2023-01-22T18:31:38.754Z,0.00
2023-01-22T18:35:47.720Z,0.00
2023-01-22T18:39:49.386Z,0.10
2023-01-22T18:43:53.707Z,0.10
2023-01-22T18:47:55.731Z,0.10
2023-01-22T18:52:00.778Z,0.10
2023-01-22T18:56:04.035Z,0.10
2023-01-22T19:00:07.505Z,0.10
2023-01-22T19:04:09.672Z,0.10
2023-01-22T19:08:11.795Z,0.10
2023-01-22T19:12:15.286Z,0.10
2023-01-22T19:16:17.614Z,0.00
2023-01-22T19:20:19.323Z,0.10
2023-01-22T19:24:26.568Z,0.00
2023-01-22T19:28:28.403Z,0.10
2023-01-22T19:32:31.196Z,0.00
2023-01-22T19:36:34.102Z,0.10
2023-01-22T19:40:35.740Z,0.10
2023-01-22T19:44:39.766Z,0.10
2023-01-22T19:48:41.743Z,0.20
2023-01-22T19:52:43.673Z,0.10
2023-01-22T19:56:45.917Z,0.10
2023-01-22T20:00:47.784Z,0.10
2023-01-22T20:04:49.669Z,0.00
2023-01-22T20:08:51.839Z,0.10
2023-01-22T20:12:53.484Z,0.10
2023-01-22T20:16:55.596Z,0.00
2023-01-22T20:21:00.869Z,0.00
2023-01-22T20:25:02.583Z,0.00
2023-01-22T20:29:04.511Z,0.10
2023-01-22T20:33:06.166Z,0.10
2023-01-22T20:37:07.888Z,0.10
2023-01-22T20:41:09.568Z,0.10
2023-01-22T20:45:11.192Z,0.10
2023-01-22T20:49:13.107Z,0.10
2023-01-22T20:53:14.710Z,0.10
2023-01-22T20:57:16.288Z,0.20
2023-01-22T21:01:19.336Z,0.10
2023-01-22T21:05:21.301Z,0.10
2023-01-22T21:09:22.952Z,0.10
2023-01-22T21:13:24.749Z,0.10
2023-01-22T21:17:26.342Z,0.10
2023-01-22T21:21:29.027Z,0.10
2023-01-22T21:25:30.654Z,0.20
2023-01-22T21:29:32.267Z,0.30
2023-01-22T21:33:33.972Z,0.30
2023-01-22T21:37:35.614Z,0.30
2023-01-22T21:41:37.422Z,0.30
2023-01-22T21:45:59.699Z,0.20
2023-01-22T21:50:01.446Z,0.20
2023-01-22T21:54:03.145Z,0.20
2023-01-22T21:58:06.574Z,0.20
2023-01-22T22:02:13.496Z,0.20
2023-01-22T22:06:15.181Z,0.30
2023-01-22T22:10:17.279Z,0.20
2023-01-22T22:14:21.917Z,0.20
2023-01-22T22:18:23.590Z,0.30
2023-01-22T22:22:25.224Z,0.20
2023-01-22T22:26:27.275Z,0.30
2023-01-22T22:30:28.914Z,0.30
2023-01-22T22:34:30.582Z,0.30
2023-01-22T22:38:32.366Z,0.30
2023-01-22T22:42:33.937Z,0.30
2023-01-22T22:46:37.079Z,0.40
2023-01-22T22:50:40.991Z,0.40
2023-01-22T22:54:42.752Z,0.50
2023-01-22T22:58:44.344Z,0.30
2023-01-22T23:02:45.883Z,0.30
2023-01-22T23:06:47.636Z,0.30
2023-01-22T23:10:49.248Z,0.30
2023-01-22T23:14:50.926Z,0.30
2023-01-22T23:18:52.548Z,0.20
2023-01-22T23:22:55.564Z,0.30
2023-01-22T23:26:57.421Z,0.20
2023-01-22T23:31:03.710Z,0.30
2023-01-22T23:35:06.278Z,0.30
2023-01-22T23:39:07.874Z,0.40
2023-01-22T23:43:10.333Z,0.50
2023-01-22T23:47:11.938Z,0.40
2023-01-22T23:51:14.070Z,0.40
2023-01-22T23:55:15.759Z,0.40
2023-01-22T23:59:17.361Z,0.40
